Time;durP1;ratioP1;P1;durP2;ratioP2;P2;SDS_P1;SDS_P2;PMS_P1;PMS_P2;Temp;Humidity;BMP_temperature;BMP_pressure;BME280_temperature;BME280_humidity;BME280_pressure;Samples;Min_cycle;Max_cycle;Signal;HPM_P1;HPM_P2
2022/11/12 00:00:14;;;;;;;17.80;12.45;;;;;;;7.13;75.57;101896.05;1755853;80;21022;-49
2022/11/12 00:02:58;;;;;;;17.00;11.63;;;;;;;7.13;75.59;101899.55;1772659;80;21058;-48
2022/11/12 00:05:44;;;;;;;13.10;5.35;;;;;;;7.17;75.54;101895.88;1766132;79;21117;-49
2022/11/12 00:08:30;;;;;;;17.07;12.13;;;;;;;7.21;75.65;101898.78;1768574;79;21058;-52
2022/11/12 00:11:15;;;;;;;18.70;12.07;;;;;;;7.19;75.87;101900.58;1769099;80;21118;-49
2022/11/12 00:14:01;;;;;;;16.87;11.80;;;;;;;7.15;76.00;101899.02;1778678;79;20996;-50
2022/11/12 00:16:47;;;;;;;18.85;11.88;;;;;;;7.14;75.96;101896.47;1729215;81;21062;-50
2022/11/12 00:19:33;;;;;;;;;;;;;;;7.19;75.81;101896.66;1770258;79;21040;-48
2022/11/12 00:22:18;;;;;;;15.63;11.80;;;;;;;7.23;75.79;101900.87;1771174;79;20143;-49
2022/11/12 00:25:04;;;;;;;24.98;14.05;;;;;;;7.20;75.86;101903.61;1736564;81;21239;-49
2022/11/12 00:27:50;;;;;;;18.25;13.43;;;;;;;7.14;75.89;101906.94;1718609;82;21480;-49
2022/11/12 00:30:37;;;;;;;20.60;14.53;;;;;;;7.09;75.91;101923.29;1710273;82;21063;-49
2022/11/12 00:33:21;;;;;;;19.98;13.62;;;;;;;7.05;75.66;101919.48;1762887;79;21615;-48
2022/11/12 00:36:08;;;;;;;18.82;12.88;;;;;;;7.07;75.52;101913.72;1774419;79;21057;-48
2022/11/12 00:38:52;;;;;;;15.65;7.00;;;;;;;7.07;75.62;101916.34;1766409;79;21232;-48
2022/11/12 00:41:38;;;;;;;18.30;12.70;;;;;;;7.05;75.84;101923.88;1779468;79;21042;-48
2022/11/12 00:44:23;;;;;;;16.30;12.10;;;;;;;7.01;75.98;101923.16;1768861;79;21085;-48
2022/11/12 00:47:08;;;;;;;17.98;11.83;;;;;;;7.00;75.84;101925.36;1741939;81;22273;-48
2022/11/12 00:49:53;;;;;;;18.30;13.10;;;;;;;7.06;75.67;101919.02;1768124;79;21656;-49
2022/11/12 00:52:39;;;;;;;19.62;13.50;;;;;;;7.09;75.73;101915.44;1775706;79;21936;-49
2022/11/12 00:55:24;;;;;;;19.10;15.00;;;;;;;7.07;75.95;101927.27;1782452;79;21715;-49
2022/11/12 00:58:08;;;;;;;32.98;18.87;;;;;;;7.05;76.08;101925.19;1782440;79;21040;-49
2022/11/12 01:00:54;;;;;;;29.18;18.07;;;;;;;7.07;76.03;101925.97;1768465;79;21042;-49
2022/11/12 01:03:39;;;;;;;30.08;19.35;;;;;;;7.13;75.76;101925.73;1779221;79;20976;-49
2022/11/12 01:06:24;;;;;;;19.45;10.32;;;;;;;7.15;75.81;101924.36;1750110;80;21232;-49
2022/11/12 01:09:09;;;;;;;21.95;15.03;;;;;;;7.14;75.91;101929.19;1735966;80;21694;-48
2022/11/12 01:11:55;;;;;;;20.25;15.55;;;;;;;7.11;75.97;101920.14;1713788;82;21106;-50
2022/11/12 01:14:40;;;;;;;16.62;7.12;;;;;;;7.10;75.90;101927.63;1713173;82;21372;-48
2022/11/12 01:17:27;;;;;;;;;;;;;;;7.09;75.79;101912.82;1719999;82;21507;-49
2022/11/12 01:20:13;;;;;;;14.30;6.05;;;;;;;7.12;75.59;101914.84;1686895;82;23194;-48
2022/11/12 01:22:58;;;;;;;18.40;12.65;;;;;;;7.16;75.54;101917.75;1716581;82;22200;-48
2022/11/12 01:25:44;;;;;;;13.30;6.20;;;;;;;7.16;75.51;101918.19;1711602;82;21053;-48
2022/11/12 01:28:29;;;;;;;17.50;12.80;;;;;;;7.12;75.65;101911.39;1720444;82;21062;-48
2022/11/12 01:31:25;;;;;;;18.37;14.03;;;;;;;7.10;75.72;101915.37;1707530;82;21115;-48
2022/11/12 01:34:10;;;;;;;16.07;12.28;;;;;;;7.07;75.67;101922.88;1712492;82;21149;-49
2022/11/12 01:36:55;;;;;;;18.92;12.60;;;;;;;7.07;75.55;101911.57;1719317;82;21561;-50
2022/11/12 01:39:41;;;;;;;18.73;12.53;;;;;;;7.13;75.36;101910.02;1728855;82;21039;-52
2022/11/12 01:42:31;;;;;;;16.77;11.73;;;;;;;7.13;75.23;101910.02;1714007;83;21023;-49
2022/11/12 01:45:17;;;;;;;16.90;12.65;;;;;;;7.12;75.43;101910.08;1683542;83;21105;-49
2022/11/12 01:48:03;;;;;;;14.43;6.03;;;;;;;7.07;75.38;101906.33;1714038;83;21135;-49
2022/11/12 01:50:50;;;;;;;15.60;10.95;;;;;;;7.00;75.26;101913.59;1696120;83;21573;-49
2022/11/12 01:53:39;;;;;;;15.15;6.30;;;;;;;6.98;75.35;101918.03;1760321;79;21106;-48
2022/11/12 01:56:24;;;;;;;18.10;11.88;;;;;;;7.02;74.97;101918.76;1781139;79;21515;-50
2022/11/12 01:59:23;;;;;;;20.52;12.35;;;;;;;6.93;74.76;101917.84;1778676;79;21574;-49
2022/11/12 02:04:53;;;;;;;13.70;5.35;;;;;;;6.66;76.05;101912.78;1759081;79;22591;-68
2022/11/12 02:07:40;;;;;;;19.70;11.38;;;;;;;6.77;75.31;101902.72;1756618;79;21038;-69
2022/11/12 02:10:25;;;;;;;9.60;5.67;;;;;;;6.75;75.12;101903.25;1769275;79;21115;-69
2022/11/12 02:16:14;;;;;;;16.67;12.43;;;;;;;6.78;75.02;101904.91;1764770;80;21597;-68
2022/11/12 02:19:00;;;;;;;19.40;12.53;;;;;;;6.69;75.10;101908.28;1766348;79;21038;-69
2022/11/12 02:21:45;;;;;;;9.28;5.05;;;;;;;6.64;75.18;101900.20;1763484;79;21028;-69
2022/11/12 02:24:32;;;;;;;15.27;11.83;;;;;;;6.63;75.25;101904.58;1767616;80;22043;-69
2022/11/12 02:27:16;;;;;;;;;;;;;;;6.68;75.09;101905.72;1770861;79;21034;-69
2022/11/12 02:30:02;;;;;;;16.20;12.33;;;;;;;6.68;75.14;101895.26;1766477;80;20162;-68
2022/11/12 02:32:49;;;;;;;17.85;12.30;;;;;;;6.61;75.38;101898.56;1761848;80;21530;-68
2022/11/12 02:35:33;;;;;;;20.08;12.43;;;;;;;6.55;75.78;101894.87;1763562;79;21017;-69
2022/11/12 02:38:18;;;;;;;19.07;11.85;;;;;;;6.57;75.97;101907.43;1767894;80;21213;-68
2022/11/12 02:41:04;;;;;;;12.97;6.37;;;;;;;6.71;75.70;101906.91;1768318;80;20987;-69
2022/11/12 02:43:49;;;;;;;16.55;12.25;;;;;;;6.68;75.65;101913.10;1765947;80;21096;-68
2022/11/12 02:46:35;;;;;;;12.23;6.67;;;;;;;6.67;75.67;101914.03;1773103;79;20988;-69
2022/11/12 02:49:20;;;;;;;18.98;13.10;;;;;;;6.66;75.57;101910.17;1760076;80;21956;-69
2022/11/12 02:52:06;;;;;;;17.92;12.63;;;;;;;6.62;75.47;101905.95;1766840;79;21157;-68
2022/11/12 02:54:52;;;;;;;15.95;11.83;;;;;;;6.67;75.53;101908.80;1768909;80;21124;-68
2022/11/12 02:57:38;;;;;;;18.75;13.55;;;;;;;6.74;75.24;101907.23;1769681;80;21145;-69
2022/11/12 03:00:23;;;;;;;;;;;;;;;6.72;75.38;101900.75;1767641;80;21026;-70
2022/11/12 03:03:08;;;;;;;13.85;6.65;;;;;;;6.71;75.50;101902.98;1754375;79;20318;-69
2022/11/12 03:05:58;;;;;;;15.48;6.03;;;;;;;6.68;75.72;101904.41;1758515;80;21294;-70
2022/11/12 03:08:44;;;;;;;19.35;11.73;;;;;;;6.68;75.74;101905.25;1757558;80;21040;-70
2022/11/12 03:11:29;;;;;;;17.17;11.95;;;;;;;6.76;75.65;101905.40;1751552;80;21122;-69
2022/11/12 03:14:14;;;;;;;20.10;12.67;;;;;;;6.79;75.49;101896.12;1754216;80;21488;-70
2022/11/12 03:17:01;;;;;;;17.17;12.45;;;;;;;6.77;75.47;101901.88;1754325;81;21071;-69
2022/11/12 03:19:46;;;;;;;17.27;11.83;;;;;;;6.72;75.47;101899.44;1747854;80;21154;-70
2022/11/12 03:22:33;;;;;;;16.23;12.95;;;;;;;6.68;75.65;101899.18;1751923;81;21024;-68
2022/11/12 03:25:17;;;;;;;16.23;10.43;;;;;;;6.72;75.58;101897.29;1753535;80;21044;-68
2022/11/12 03:28:08;;;;;;;17.55;12.28;;;;;;;6.78;75.39;101900.98;1749581;80;21015;-68
2022/11/12 03:30:59;;;;;;;18.62;12.95;;;;;;;6.80;75.36;101898.68;1750159;81;21038;-68
2022/11/12 03:33:44;;;;;;;16.30;12.75;;;;;;;6.79;75.48;101903.97;1752440;79;21336;-69
2022/11/12 03:36:30;;;;;;;11.45;5.65;;;;;;;6.75;75.46;101902.41;1755176;81;21288;-69
2022/11/12 03:39:16;;;;;;;19.37;12.28;;;;;;;6.75;75.44;101903.25;1750159;80;21097;-69
2022/11/12 03:42:02;;;;;;;17.70;12.85;;;;;;;6.81;75.28;101904.33;1753422;79;21024;-69
2022/11/12 03:44:48;;;;;;;17.00;12.70;;;;;;;6.87;75.30;101911.91;1755251;80;21037;-69
2022/11/12 03:47:34;;;;;;;11.03;5.03;;;;;;;6.88;75.35;101904.93;1756956;80;21879;-69
2022/11/12 03:50:24;;;;;;;19.48;12.13;;;;;;;6.86;75.36;101902.38;1745044;80;21058;-69
2022/11/12 03:53:09;;;;;;;18.37;11.57;;;;;;;6.82;75.34;101898.63;1752793;81;21535;-68
2022/11/12 03:55:54;;;;;;;15.58;11.83;;;;;;;6.87;75.29;101894.90;1754246;80;21035;-69
2022/11/12 03:58:39;;;;;;;10.90;5.57;;;;;;;6.95;75.07;101890.67;1759146;79;21016;-69
2022/11/12 04:01:24;;;;;;;17.00;11.80;;;;;;;7.00;75.02;101890.50;1756700;80;21299;-70
2022/11/12 04:04:09;;;;;;;18.80;12.85;;;;;;;6.99;75.18;101890.97;1766028;80;21032;-69
2022/11/12 04:09:58;;;;;;;20.30;11.53;;;;;;;6.93;75.10;101899.52;1781475;80;21030;-69
2022/11/12 04:21:49;;;;;;;16.73;12.18;;;;;;;6.99;74.73;101891.39;1779397;80;21252;-69
2022/11/12 04:21:49;;;;;;;15.48;11.70;;;;;;;6.97;74.72;101903.70;1780151;79;21426;-69
2022/11/12 04:27:42;;;;;;;15.53;11.33;;;;;;;6.84;74.40;101901.59;1774587;80;21497;-68
2022/11/12 04:30:27;;;;;;;16.77;12.47;;;;;;;6.84;74.23;101903.33;1770748;80;22250;-68
2022/11/12 04:33:12;;;;;;;14.90;12.15;;;;;;;6.78;74.15;101900.52;1769817;80;21703;-69
2022/11/12 04:35:57;;;;;;;16.77;12.65;;;;;;;6.71;74.31;101895.14;1780605;80;21030;-69
2022/11/12 04:38:43;;;;;;;16.97;11.57;;;;;;;6.65;74.42;101892.75;1776403;80;21118;-69
2022/11/12 04:47:39;;;;;;;16.48;12.85;;;;;;;6.73;74.71;101905.55;1747014;81;21057;-69
2022/11/12 04:50:25;;;;;;;17.42;12.33;;;;;;;6.76;74.98;101901.04;1749312;81;22241;-69
2022/11/12 04:53:10;;;;;;;15.35;11.78;;;;;;;6.77;75.22;101898.80;1748900;81;21049;-69
2022/11/12 04:55:57;;;;;;;8.93;4.33;;;;;;;6.83;75.31;101903.80;1759026;81;21097;-69
2022/11/12 04:58:43;;;;;;;16.60;12.10;;;;;;;6.96;75.15;101904.17;1748340;81;21638;-68
2022/11/12 05:01:28;;;;;;;19.42;11.65;;;;;;;7.03;75.04;101900.84;1756365;81;21525;-69
2022/11/12 05:04:14;;;;;;;16.15;11.93;;;;;;;7.05;75.05;101904.25;1752694;81;21102;-69
2022/11/12 05:07:00;;;;;;;14.75;6.72;;;;;;;7.04;74.93;101892.06;1759947;79;21088;-69
2022/11/12 05:09:45;;;;;;;18.12;11.97;;;;;;;7.07;74.94;101874.45;1760617;80;21039;-69
2022/11/12 05:12:32;;;;;;;19.75;11.48;;;;;;;7.18;74.74;101872.72;1763960;80;21008;-69
2022/11/12 05:15:17;;;;;;;17.20;11.83;;;;;;;7.21;74.54;101868.67;1750319;80;21087;-69
2022/11/12 05:18:02;;;;;;;15.60;11.53;;;;;;;7.21;74.70;101877.83;1759828;80;21055;-69
2022/11/12 05:20:51;;;;;;;11.68;6.37;;;;;;;7.18;74.77;101879.73;1760043;80;21051;-69
2022/11/12 05:23:35;;;;;;;16.42;12.50;;;;;;;7.17;74.90;101877.55;1755536;80;21567;-69
2022/11/12 05:26:20;;;;;;;16.90;11.57;;;;;;;7.18;74.90;101874.03;1754740;79;21159;-69
2022/11/12 05:29:07;;;;;;;10.53;5.85;;;;;;;7.22;74.61;101892.61;1755774;79;25117;-69
2022/11/12 05:31:52;;;;;;;14.40;11.10;;;;;;;7.27;74.35;101888.49;1755044;79;21066;-69
2022/11/12 05:34:39;;;;;;;18.90;13.15;;;;;;;7.32;74.32;101896.16;1760360;79;21168;-69
2022/11/12 05:37:24;;;;;;;19.17;13.08;;;;;;;7.30;74.41;101894.91;1755400;79;21008;-69
2022/11/12 05:40:13;;;;;;;14.73;10.72;;;;;;;7.28;74.44;101894.14;1761515;80;22494;-69
2022/11/12 05:42:57;;;;;;;15.93;11.00;;;;;;;7.32;74.47;101897.47;1755979;80;21023;-69
2022/11/12 05:45:43;;;;;;;18.92;12.40;;;;;;;7.41;74.30;101910.16;1764210;80;21449;-69
2022/11/12 05:49:59;;;;;;;19.23;12.47;;;;;;;7.38;74.77;101906.36;1789579;78;22014;-68
2022/11/12 05:52:45;;;;;;;16.32;12.63;;;;;;;7.46;74.42;101907.36;1775398;80;21609;-68
2022/11/12 05:55:30;;;;;;;16.50;10.72;;;;;;;7.44;74.43;101910.04;1771813;79;21142;-69
2022/11/12 05:58:15;;;;;;;16.97;12.05;;;;;;;7.47;74.35;101915.15;1769150;80;21444;-68
2022/11/12 06:01:00;;;;;;;18.82;12.43;;;;;;;7.56;74.30;101914.74;1773067;80;21002;-69
2022/11/12 06:03:45;;;;;;;17.05;13.38;;;;;;;7.63;74.12;101918.83;1711334;82;21058;-69
2022/11/12 06:06:31;;;;;;;20.62;14.45;;;;;;;7.61;74.01;101916.70;1726355;82;21038;-69
2022/11/12 06:09:16;;;;;;;16.55;12.13;;;;;;;7.60;74.17;101918.11;1730924;82;21821;-69
2022/11/12 06:12:05;;;;;;;10.67;6.67;;;;;;;7.61;74.28;101914.08;1725542;81;21084;-69
2022/11/12 06:14:50;;;;;;;20.90;13.40;;;;;;;7.71;74.11;101913.23;1716106;82;21105;-69
2022/11/12 06:17:35;;;;;;;21.75;14.60;;;;;;;7.76;74.11;101923.05;1721316;82;21513;-69
2022/11/12 06:20:21;;;;;;;20.45;13.95;;;;;;;7.78;74.09;101919.93;1716385;82;21449;-69
2022/11/12 06:23:06;;;;;;;;;;;;;;;7.78;74.09;101924.30;1719491;82;21298;-69
2022/11/12 06:25:51;;;;;;;20.57;14.00;;;;;;;7.79;74.06;101914.22;1713461;82;20465;-69
2022/11/12 06:28:36;;;;;;;18.12;13.95;;;;;;;7.87;73.88;101916.05;1714363;82;21053;-71
2022/11/12 06:31:21;;;;;;;18.45;14.15;;;;;;;7.92;73.96;101904.90;1726132;82;21042;-69
2022/11/12 06:34:06;;;;;;;24.47;15.48;;;;;;;7.91;74.13;101898.41;1719181;82;21042;-68
2022/11/12 06:36:51;;;;;;;19.75;14.07;;;;;;;7.92;74.19;101902.28;1719318;81;21144;-69
2022/11/12 06:39:37;;;;;;;11.35;5.42;;;;;;;7.95;74.13;101894.28;1718104;82;21058;-69
2022/11/12 06:42:22;;;;;;;16.37;12.35;;;;;;;8.05;73.93;101894.70;1718469;82;21621;-69
2022/11/12 06:45:09;;;;;;;20.50;14.03;;;;;;;8.13;73.88;101892.58;1715920;82;21048;-70
2022/11/12 06:47:58;;;;;;;17.82;12.82;;;;;;;8.14;73.92;101894.77;1727326;82;21007;-69
2022/11/12 06:50:43;;;;;;;20.62;13.65;;;;;;;8.16;73.97;101897.69;1703328;84;21274;-70
2022/11/12 06:53:28;;;;;;;20.92;13.58;;;;;;;8.19;73.76;101907.20;1739589;81;20965;-69
2022/11/12 06:56:14;;;;;;;19.07;12.85;;;;;;;8.24;73.52;101909.59;1740061;81;21016;-69
2022/11/12 06:59:00;;;;;;;20.88;13.40;;;;;;;8.25;73.51;101904.28;1738209;81;21043;-69
2022/11/12 07:01:45;;;;;;;20.55;13.22;;;;;;;8.29;73.61;101898.45;1742985;82;21050;-70
2022/11/12 07:04:31;;;;;;;19.12;13.32;;;;;;;8.29;73.68;101900.61;1737063;81;21167;-70
2022/11/12 07:07:16;;;;;;;15.70;11.93;;;;;;;8.31;73.81;101894.83;1743293;82;21003;-68
2022/11/12 07:10:01;;;;;;;20.43;13.48;;;;;;;8.43;73.87;101882.94;1742917;82;21062;-67
2022/11/12 07:12:46;;;;;;;19.45;13.65;;;;;;;8.51;73.86;101874.25;1742103;81;21310;-72
2022/11/12 07:15:31;;;;;;;20.72;14.38;;;;;;;8.50;74.06;101867.77;1739486;82;21094;-72
2022/11/12 07:18:17;;;;;;;19.85;13.80;;;;;;;8.56;74.30;101867.48;1748258;82;21138;-71
2022/11/12 07:21:06;;;;;;;20.97;13.15;;;;;;;8.63;74.42;101854.45;1750434;82;21036;-69
2022/11/12 07:23:53;;;;;;;20.60;13.65;;;;;;;8.79;74.24;101866.81;1731468;82;21039;-68
2022/11/12 07:26:38;;;;;;;20.93;15.40;;;;;;;8.90;74.03;101863.21;1718800;82;21008;-67
2022/11/12 07:29:23;;;;;;;24.45;15.10;;;;;;;8.95;73.94;101866.93;1735211;82;21144;-70
2022/11/12 07:32:08;;;;;;;21.05;14.13;;;;;;;8.99;73.84;101865.84;1741008;82;21126;-69
2022/11/12 07:34:54;;;;;;;17.07;13.80;;;;;;;9.07;73.78;101861.90;1730968;82;21042;-69
2022/11/12 07:37:39;;;;;;;19.50;14.58;;;;;;;9.21;73.39;101862.98;1733291;82;21159;-68
2022/11/12 07:40:24;;;;;;;20.62;14.80;;;;;;;9.28;73.34;101859.98;1745141;81;20992;-68
2022/11/12 07:43:09;;;;;;;20.20;13.90;;;;;;;9.34;73.09;101864.06;1750807;82;21030;-68
2022/11/12 07:46:00;;;;;;;19.52;13.83;;;;;;;9.36;73.15;101850.37;1723815;82;21150;-67
2022/11/12 07:48:46;;;;;;;21.35;13.90;;;;;;;9.42;73.02;101854.01;1749303;80;20988;-67
2022/11/12 07:51:31;;;;;;;18.48;13.85;;;;;;;9.54;72.91;101853.84;1752367;81;21547;-67
2022/11/12 07:54:16;;;;;;;18.25;13.53;;;;;;;9.64;72.74;101856.36;1744290;81;21489;-69
2022/11/12 07:57:01;;;;;;;19.40;14.33;;;;;;;9.71;72.57;101863.94;1753699;81;21043;-68
2022/11/12 07:59:47;;;;;;;16.23;13.45;;;;;;;9.71;72.46;101859.52;1740265;80;21345;-68
2022/11/12 08:02:32;;;;;;;21.53;15.33;;;;;;;9.79;72.50;101861.75;1756528;81;21062;-69
2022/11/12 08:05:17;;;;;;;19.80;14.55;;;;;;;9.92;72.33;101856.67;1744609;81;21039;-68
2022/11/12 08:08:03;;;;;;;17.50;14.27;;;;;;;10.03;72.28;101855.16;1743788;81;21442;-69
2022/11/12 08:10:48;;;;;;;17.75;13.75;;;;;;;10.11;72.28;101858.70;1758370;81;21524;-70
2022/11/12 08:13:32;;;;;;;23.05;14.58;;;;;;;10.19;72.05;101858.29;1731159;81;21278;-70
2022/11/12 08:16:18;;;;;;;21.93;13.43;;;;;;;10.31;71.76;101855.45;1739834;81;21063;-66
2022/11/12 08:19:03;;;;;;;21.10;14.68;;;;;;;10.44;71.35;101860.45;1753642;81;21035;-68
2022/11/12 08:21:49;;;;;;;18.05;13.43;;;;;;;10.53;70.84;101856.44;1756377;81;21067;-68
2022/11/12 08:24:34;;;;;;;22.80;14.83;;;;;;;10.55;70.60;101860.67;1744155;81;21046;-68
2022/11/12 08:27:19;;;;;;;21.37;15.45;;;;;;;10.57;70.86;101859.27;1751436;81;21136;-66
2022/11/12 08:30:06;;;;;;;20.48;15.10;;;;;;;10.66;70.74;101863.16;1759552;81;21071;-66
2022/11/12 08:33:04;;;;;;;19.73;14.15;;;;;;;10.81;70.43;101858.36;1766164;81;21027;-69
2022/11/12 08:35:49;;;;;;;22.48;14.98;;;;;;;10.94;70.43;101864.61;1761551;80;21011;-66
2022/11/12 08:38:35;;;;;;;19.15;15.03;;;;;;;10.99;69.93;101859.05;1748001;80;20968;-67
2022/11/12 08:41:20;;;;;;;22.22;15.55;;;;;;;11.02;69.64;101857.56;1745942;81;21166;-69
2022/11/12 08:44:05;;;;;;;21.35;15.95;;;;;;;11.10;69.96;101850.55;1750909;81;21510;-68
2022/11/12 08:46:51;;;;;;;21.75;14.95;;;;;;;11.23;69.25;101848.02;1765838;81;21145;-71
2022/11/12 08:49:36;;;;;;;18.50;14.95;;;;;;;11.36;69.20;101848.14;1758329;80;21815;-70
2022/11/12 08:52:21;;;;;;;18.67;14.13;;;;;;;11.40;69.01;101846.55;1755351;80;21275;-66
2022/11/12 08:55:07;;;;;;;18.75;13.78;;;;;;;11.61;68.53;101847.50;1764590;80;21780;-66
2022/11/12 08:57:52;;;;;;;20.43;14.28;;;;;;;11.56;68.48;101849.09;1742862;80;21583;-69
2022/11/12 09:00:41;;;;;;;22.57;15.23;;;;;;;11.68;68.10;101848.81;1757069;79;21082;-67
2022/11/12 09:03:27;;;;;;;22.82;15.38;;;;;;;11.77;67.98;101832.89;1759364;80;21039;-66
2022/11/12 09:06:12;;;;;;;29.17;15.87;;;;;;;11.85;67.39;101837.22;1765340;80;21479;-68
2022/11/12 09:08:57;;;;;;;19.50;14.60;;;;;;;11.89;67.43;101847.97;1759041;80;21656;-68
2022/11/12 09:11:42;;;;;;;21.50;15.35;;;;;;;11.95;67.64;101840.17;1755753;80;20988;-69
2022/11/12 09:14:29;;;;;;;21.33;14.53;;;;;;;12.05;67.16;101845.23;1751226;80;21005;-69
2022/11/12 09:17:14;;;;;;;20.20;13.75;;;;;;;12.19;66.63;101832.52;1763336;80;21047;-69
2022/11/12 09:20:00;;;;;;;23.18;14.73;;;;;;;12.28;66.43;101823.16;1759052;80;21024;-70
2022/11/12 09:22:46;;;;;;;20.50;14.73;;;;;;;12.34;65.69;101822.30;1758131;80;21259;-70
2022/11/12 09:25:32;;;;;;;20.88;14.43;;;;;;;12.40;65.63;101823.19;1689260;84;21043;-69
2022/11/12 09:28:18;;;;;;;21.42;14.60;;;;;;;12.49;65.84;101823.55;1731758;82;20988;-69
2022/11/12 09:31:05;;;;;;;17.65;13.30;;;;;;;12.67;65.68;101813.58;1755512;80;22216;-70
2022/11/12 09:33:50;;;;;;;23.85;14.33;;;;;;;12.94;65.23;101814.84;1695466;82;21091;-69
2022/11/12 09:36:35;;;;;;;18.92;13.13;;;;;;;13.16;64.31;101820.39;1758218;80;21260;-69
2022/11/12 09:39:20;;;;;;;18.87;12.93;;;;;;;13.30;63.63;101821.24;1685322;83;21772;-70
2022/11/12 09:42:07;;;;;;;15.35;9.85;;;;;;;13.41;62.83;101819.20;1757990;80;21104;-69
2022/11/12 09:45:01;;;;;;;14.80;9.98;;;;;;;13.50;61.35;101827.34;1756174;80;21055;-69
2022/11/12 09:47:52;;;;;;;13.05;9.63;;;;;;;13.54;60.19;101831.45;1760477;80;21572;-69
2022/11/12 09:50:43;;;;;;;13.38;9.38;;;;;;;13.51;59.64;101827.70;1769274;80;21327;-69
2022/11/12 09:53:52;;;;;;;13.55;8.88;;;;;;;13.40;60.07;101828.94;1776101;80;21042;-69
2022/11/12 09:56:37;;;;;;;14.05;7.95;;;;;;;13.38;59.57;101824.21;1761099;80;21030;-69
2022/11/12 09:59:26;;;;;;;12.75;7.75;;;;;;;13.35;59.43;101808.10;1766592;80;21503;-70
2022/11/12 10:02:29;;;;;;;13.30;8.20;;;;;;;13.28;59.13;101814.73;1770027;80;21076;-69
2022/11/12 10:05:37;;;;;;;11.08;8.33;;;;;;;13.31;59.54;101813.17;1756355;80;21241;-69
2022/11/12 10:12:36;;;;;;;13.25;9.30;;;;;;;13.24;59.64;101815.05;1794110;77;22717;-70
2022/11/12 10:18:54;;;;;;;14.15;9.48;;;;;;;13.45;59.43;101813.60;1718974;82;21374;-70
2022/11/12 10:22:14;;;;;;;19.05;9.93;;;;;;;13.55;59.41;101814.65;1693766;83;21041;-69
2022/11/12 10:25:11;;;;;;;13.40;7.90;;;;;;;13.63;59.58;101810.61;1721908;82;20986;-70
2022/11/12 10:27:56;;;;;;;15.20;9.10;;;;;;;13.80;59.17;101805.00;1723366;82;21404;-69
2022/11/12 10:30:42;;;;;;;15.55;8.88;;;;;;;13.92;58.31;101804.11;1715882;82;21679;-70
2022/11/12 10:33:31;;;;;;;18.87;9.33;;;;;;;13.94;58.46;101801.36;1715153;83;21301;-70
2022/11/12 10:36:32;;;;;;;15.23;8.53;;;;;;;14.01;58.59;101792.50;1737518;82;21050;-70
2022/11/12 10:39:38;;;;;;;13.05;8.65;;;;;;;14.09;58.30;101779.07;1733066;82;21484;-70
2022/11/12 10:42:23;;;;;;;13.83;7.97;;;;;;;14.17;58.04;101781.17;1725640;82;21069;-70
2022/11/12 10:45:20;;;;;;;16.42;8.73;;;;;;;14.22;58.29;101772.87;1712425;82;21111;-70
2022/11/12 10:48:27;;;;;;;13.83;8.73;;;;;;;14.30;58.31;101780.61;1746062;80;21328;-71
2022/11/12 10:51:29;;;;;;;15.95;8.15;;;;;;;14.38;57.34;101780.05;1745924;80;21038;-70
2022/11/12 10:54:31;;;;;;;14.30;8.68;;;;;;;14.35;56.63;101776.30;1745894;81;21042;-71
2022/11/12 10:57:25;;;;;;;10.90;7.62;;;;;;;14.25;57.27;101768.19;1581350;80;68005;-61
2022/11/12 11:00:17;;;;;;;15.05;8.78;;;;;;;14.27;57.14;101761.00;1576771;90;21085;-61
2022/11/12 11:03:07;;;;;;;12.10;7.95;;;;;;;14.29;57.31;101764.38;1581643;90;21153;-61
2022/11/12 11:06:03;;;;;;;14.78;9.18;;;;;;;14.45;57.54;101757.45;1537517;91;21161;-59
2022/11/12 11:08:53;;;;;;;16.10;8.60;;;;;;;14.62;56.68;101750.91;1590739;90;21663;-60
2022/11/12 11:11:50;;;;;;;12.13;7.62;;;;;;;14.74;56.85;101754.44;1576777;89;21097;-59
2022/11/12 11:14:37;;;;;;;13.62;9.10;;;;;;;14.83;55.77;101767.49;1580138;89;21024;-58
2022/11/12 11:17:22;;;;;;;14.55;8.83;;;;;;;14.81;55.70;101741.56;1589383;88;21140;-59
2022/11/12 11:20:28;;;;;;;15.60;8.73;;;;;;;14.82;55.41;101759.17;1576595;90;21084;-60
2022/11/12 11:23:21;;;;;;;14.83;8.43;;;;;;;14.75;55.72;101750.84;1599414;88;21331;-60
2022/11/12 11:26:23;;;;;;;13.65;9.60;;;;;;;14.73;56.18;101750.61;1601296;87;21089;-61
2022/11/12 11:29:41;;;;;;;13.90;9.45;;;;;;;14.75;56.38;101747.36;1588807;88;21066;-60
2022/11/12 11:32:51;;;;;;;14.55;9.63;;;;;;;14.73;56.67;101758.06;1606003;87;21143;-59
2022/11/12 11:36:11;;;;;;;11.93;8.70;;;;;;;14.62;56.78;101754.89;1594201;87;21505;-60
2022/11/12 11:39:16;;;;;;;13.72;9.65;;;;;;;14.47;56.88;101756.02;1599006;87;21655;-59
2022/11/12 11:42:23;;;;;;;14.73;9.53;;;;;;;14.28;57.27;101761.35;1603286;87;21184;-60
2022/11/12 11:45:18;;;;;;;13.30;9.03;;;;;;;14.18;57.73;101756.86;1601255;87;22602;-59
2022/11/12 11:48:11;;;;;;;16.15;9.55;;;;;;;14.12;57.85;101753.70;1605281;88;21147;-59
2022/11/12 11:51:44;;;;;;;13.45;9.00;;;;;;;14.13;58.14;101757.19;1604518;88;21537;-59
2022/11/12 11:55:02;;;;;;;15.65;9.60;;;;;;;14.11;58.11;101755.97;1603191;87;21085;-59
2022/11/12 11:57:59;;;;;;;14.05;10.03;;;;;;;14.08;58.18;101758.84;1618695;88;21037;-60
2022/11/12 12:00:55;;;;;;;15.63;10.00;;;;;;;13.97;58.62;101757.94;1592204;89;21653;-60
2022/11/12 12:04:21;;;;;;;15.85;9.45;;;;;;;13.96;58.75;101741.71;1612120;89;21251;-57
2022/11/12 12:07:20;;;;;;;14.33;9.10;;;;;;;13.82;57.48;101777.08;1576009;89;21563;-59
2022/11/12 12:10:17;;;;;;;16.93;9.75;;;;;;;13.74;57.89;101740.61;1605937;87;21137;-60
2022/11/12 12:13:10;;;;;;;12.50;9.08;;;;;;;13.70;57.95;101746.60;1554086;89;21104;-56
2022/11/12 12:16:43;;;;;;;12.93;9.40;;;;;;;13.70;58.05;101749.70;1607906;88;21121;-58
2022/11/12 12:19:57;;;;;;;14.30;9.70;;;;;;;13.72;58.22;101743.85;1623988;87;21161;-59
2022/11/12 12:22:50;;;;;;;18.02;9.70;;;;;;;13.80;57.73;101736.67;1628706;87;21082;-59
2022/11/12 12:25:38;;;;;;;14.90;9.85;;;;;;;13.87;57.71;101733.48;1622137;87;21096;-61
2022/11/12 12:28:50;;;;;;;16.07;9.85;;;;;;;14.00;57.55;101724.15;1612947;87;21077;-59
2022/11/12 12:31:39;;;;;;;15.43;9.58;;;;;;;15.12;55.06;101719.34;1621824;87;21594;-59
2022/11/12 12:34:33;;;;;;;13.48;9.00;;;;;;;16.29;52.39;101726.75;1623903;87;22031;-60
2022/11/12 12:37:41;;;;;;;14.40;8.95;;;;;;;17.12;50.09;101724.22;1632376;87;21371;-61
2022/11/12 12:40:43;;;;;;;16.35;9.30;;;;;;;17.74;48.93;101718.33;1604412;87;21074;-58
2022/11/12 12:43:37;;;;;;;12.60;9.23;;;;;;;17.59;48.06;101733.84;1619598;87;21030;-59
2022/11/12 12:46:25;;;;;;;15.32;10.03;;;;;;;18.16;47.12;101717.30;1628222;87;21591;-61
2022/11/12 12:49:15;;;;;;;13.68;9.25;;;;;;;18.57;46.34;101720.12;1625924;87;21111;-61
2022/11/12 12:52:00;;;;;;;14.93;9.55;;;;;;;18.72;44.97;101697.02;1626984;87;21005;-60
2022/11/12 12:54:53;;;;;;;14.13;9.83;;;;;;;18.59;44.77;101715.15;1626570;87;21106;-59
2022/11/12 12:57:40;;;;;;;12.98;9.48;;;;;;;18.26;45.45;101711.97;1626472;87;21062;-60
2022/11/12 13:00:39;;;;;;;15.20;9.25;;;;;;;17.59;46.99;101712.55;1627210;87;21031;-59
2022/11/12 13:04:07;;;;;;;15.10;10.08;;;;;;;16.90;48.63;101714.59;1625898;87;21154;-61
2022/11/12 13:06:52;;;;;;;18.10;10.23;;;;;;;16.24;50.12;101706.84;1608382;87;21018;-56
2022/11/12 13:09:37;;;;;;;12.53;9.38;;;;;;;15.60;51.97;101713.75;1626308;87;21097;-59
2022/11/12 13:12:24;;;;;;;14.38;10.15;;;;;;;15.28;52.89;101706.58;1622800;87;21096;-59
2022/11/12 13:15:13;;;;;;;12.88;9.78;;;;;;;15.05;53.81;101707.05;1588382;87;21073;-59
2022/11/12 13:17:58;;;;;;;12.68;10.18;;;;;;;14.84;54.73;101721.47;1629117;86;21214;-59
2022/11/12 13:20:48;;;;;;;17.70;10.30;;;;;;;14.63;55.41;101716.85;1626484;87;21064;-59
2022/11/12 13:24:07;;;;;;;15.75;10.90;;;;;;;14.47;55.88;101719.80;1611952;87;21078;-59
2022/11/12 13:26:58;;;;;;;16.05;10.93;;;;;;;14.35;56.14;101715.89;1630831;87;21134;-59
2022/11/12 13:29:46;;;;;;;15.32;10.65;;;;;;;14.17;56.61;101724.72;1625516;87;21072;-59